Farmersville Station, New York
Current Conditions -  °F | °C
As of 7:55 PM on Monday 26 Jan 2015 (Local Time) from KOLE Reporting Station
Light Snow Light Snow  
Wind Chill:   Ceiling: 2900
Heat Index: 12°   Visibility: 2.5mi
Dew Point: 12°   Wind: 7mph
Humidity: 100%   Direction: 50°NE
Pressure: 29.78"   Gusts: NA
Location:  42.43°N, 78.36°W
Report Text: KOLE 270055Z AUTO 05006KT 2 1/2SM -SN SCT017 BKN029 OVC055 M11/M11 A2978 RMK AO2
Loading
Personal Weather Stations






























Interactive Weather Map New forecast layout! Learn more

10-Day Weather Forecast

Advertisements
Track Severe Weather on mobile